Savage Insight — WDF9252 — position and weather

sailwx.info

Track history (hours):
 
Tides and Currents Weather Stations Pressure Air Temp Water Temp Dewpoint Dewpoint Depression Visibility Wind Speed Wind Dir Waves Ship Positions

Savage Insight

Owner: Savage Inland Marine, Gibson, LA. More information available from US FCC via Universal Licensing System and Coast Guard Vessel Documentation Center.

Last reported at 2017-Jun-20 08:01 UTC. Time now 2017-Jun-25 15:44 UTC.
Position N 29°51' W 091°54'.

Length 32 m; draft 10 m.

Type: Towing. MMSI: 367503240.

Date/timePositionNaut miles runAvg speedWind from/ knotsBaromVisibWave heightAir tempDewpointWater temp
2017-Jun-20 08:01N 29°51' W 091°54'0 4.9
2017-Jun-20 08:00N 29°51' W 091°55'2 5.1
2017-Jun-20 07:30N 29°50' W 091°57'3 5.3
2017-Jun-20 07:00N 29°50' W 092°00'3 5.5
2017-Jun-20 06:30N 29°49' W 092°03'3 5.8
2017-Jun-20 06:00N 29°48' W 092°06'3 5.1
2017-Jun-20 05:29N 29°47' W 092°09'2 4.1
2017-Jun-20 05:00N 29°47' W 092°12'2 4.9
2017-Jun-20 04:30N 29°48' W 092°14'0 0.1
2017-Jun-20 04:00N 29°48' W 092°14'0 0.0
2017-Jun-20 03:30N 29°48' W 092°14'2 4.4
2017-Jun-20 03:00N 29°49' W 092°17'3 5.0
2017-Jun-20 02:28N 29°50' W 092°19'1 2.6
2017-Jun-20 01:58N 29°51' W 092°21'39 3.8
2017-Jun-19 15:48N 29°56' W 093°05'1 4.9
2017-Jun-19 15:30N 29°56' W 093°06'14 4.0
2017-Jun-19 12:04N 30°05' W 093°18'0 1.0
2017-Jun-19 12:00N 30°05' W 093°18'1 1.0
2017-Jun-19 11:30N 30°06' W 093°18'0 0.0
2017-Jun-19 11:00N 30°06' W 093°18'0 0.0
2017-Jun-19 10:30N 30°06' W 093°18'0 0.0
2017-Jun-19 10:00N 30°06' W 093°18'0 0.0
2017-Jun-19 09:30N 30°06' W 093°18'0 0.0
2017-Jun-19 09:00N 30°06' W 093°18'0 0.0
2017-Jun-19 08:30N 30°06' W 093°18'0 0.0
2017-Jun-19 08:00N 30°06' W 093°18'0 0.0
2017-Jun-19 07:30N 30°06' W 093°18'0 0.0
2017-Jun-19 07:00N 30°06' W 093°18'0 0.0
2017-Jun-19 06:30N 30°06' W 093°18'0 0.0
2017-Jun-19 06:00N 30°06' W 093°18'0 0.0
2017-Jun-19 05:30N 30°06' W 093°18'0 0.0
2017-Jun-19 05:00N 30°06' W 093°18'0 0.0
2017-Jun-19 04:30N 30°06' W 093°18'0 0.0
2017-Jun-19 04:00N 30°06' W 093°18'0 0.0
2017-Jun-19 03:30N 30°06' W 093°18'0 0.0
2017-Jun-19 03:00N 30°06' W 093°18'0 0.1
2017-Jun-19 02:30N 30°06' W 093°18'1 1.9
2017-Jun-19 02:00N 30°06' W 093°19'3 5.3
2017-Jun-19 01:30N 30°04' W 093°21'1 1.3
2017-Jun-19 01:00N 30°04' W 093°22'0 0.0
2017-Jun-19 00:30N 30°04' W 093°22'0 0.0
2017-Jun-19 00:00N 30°04' W 093°22'0 0.0
2017-Jun-18 23:30N 30°04' W 093°22'0 0.0
2017-Jun-18 23:00N 30°04' W 093°22'0 0.0
2017-Jun-18 22:30N 30°04' W 093°22'0 0.0
2017-Jun-18 22:00N 30°04' W 093°22'0 0.0
2017-Jun-18 21:30N 30°04' W 093°22'0 0.0
2017-Jun-18 21:00N 30°04' W 093°22'0 0.0
2017-Jun-18 20:30N 30°04' W 093°22'0 0.0
2017-Jun-18 20:00N 30°04' W 093°22'0 0.0
2017-Jun-18 19:30N 30°04' W 093°22'0 0.0
2017-Jun-18 19:00N 30°04' W 093°22'0 0.0
2017-Jun-18 18:30N 30°04' W 093°22'0 0.0
2017-Jun-18 18:00N 30°04' W 093°22'0 0.0
2017-Jun-18 17:30N 30°04' W 093°22'0 0.1
2017-Jun-18 17:00N 30°04' W 093°22'0 0.1
2017-Jun-18 16:30N 30°04' W 093°22'0 0.1
2017-Jun-18 16:00N 30°04' W 093°22'0 0.5
2017-Jun-18 15:30N 30°04' W 093°21'0 0.3
2017-Jun-18 15:00N 30°04' W 093°21'0 0.0
2017-Jun-18 14:00N 30°04' W 093°21'0 0.0
2017-Jun-18 13:30N 30°04' W 093°21'0 0.0
2017-Jun-18 13:01N 30°04' W 093°21'0 0.8
2017-Jun-18 12:30N 30°04' W 093°22'1 2.3
2017-Jun-18 12:00N 30°04' W 093°21'2 3.6
2017-Jun-18 11:30N 30°06' W 093°20'2 4.4
2017-Jun-18 11:00N 30°08' W 093°20'1 1.0
2017-Jun-18 10:30N 30°08' W 093°19'0 0.0
2017-Jun-18 10:00N 30°08' W 093°19'0 0.0
2017-Jun-18 09:30N 30°08' W 093°19'0 0.0
2017-Jun-18 09:00N 30°08' W 093°19'0 0.0
2017-Jun-18 08:30N 30°08' W 093°19'0 0.0
2017-Jun-18 08:00N 30°08' W 093°19'0 0.0
2017-Jun-18 07:30N 30°08' W 093°19'0 0.0
2017-Jun-18 07:00N 30°08' W 093°19'0 0.0
2017-Jun-18 06:30N 30°08' W 093°19'0 0.0
2017-Jun-18 06:00N 30°08' W 093°19'0 0.0
2017-Jun-18 05:30N 30°08' W 093°19'0 0.0
2017-Jun-18 05:00N 30°08' W 093°19'0 0.0
2017-Jun-18 04:30N 30°08' W 093°19'0 0.0
2017-Jun-18 04:00N 30°08' W 093°19'0 0.0
2017-Jun-18 03:30N 30°08' W 093°19'0 0.0
2017-Jun-18 03:00N 30°08' W 093°19'0 0.0
2017-Jun-18 02:30N 30°08' W 093°19'0 0.0
2017-Jun-18 02:00N 30°08' W 093°19'0 0.0
2017-Jun-18 01:30N 30°08' W 093°19'0 0.0
2017-Jun-18 01:00N 30°08' W 093°19'0 0.0
2017-Jun-18 00:30N 30°08' W 093°19'0 0.0
2017-Jun-18 00:00N 30°08' W 093°19'0 0.0
2017-Jun-17 23:30N 30°08' W 093°19'0 0.0
2017-Jun-17 23:00N 30°08' W 093°19'0 0.0
2017-Jun-17 22:30N 30°08' W 093°19'0 0.0
2017-Jun-17 22:00N 30°08' W 093°19'0 0.0
2017-Jun-17 21:30N 30°08' W 093°19'0 0.0
2017-Jun-17 21:00N 30°08' W 093°19'0 0.0
2017-Jun-17 20:30N 30°08' W 093°19'0 0.0
2017-Jun-17 20:00N 30°08' W 093°19'0 0.0
2017-Jun-17 19:30N 30°08' W 093°19'0 0.0
2017-Jun-17 19:00N 30°08' W 093°19'0 0.0
2017-Jun-17 18:30N 30°08' W 093°19'0 0.0
2017-Jun-17 18:00N 30°08' W 093°19'0 0.0
2017-Jun-17 17:30N 30°08' W 093°19'0 0.0
2017-Jun-17 17:00N 30°08' W 093°19'0 0.6
2017-Jun-17 16:30N 30°08' W 093°20'0 0.1
2017-Jun-17 16:00N 30°08' W 093°19'0 0.0
2017-Jun-17 15:30N 30°08' W 093°19'0 0.0
2017-Jun-17 15:00N 30°08' W 093°20'0 0.1
2017-Jun-17 14:30N 30°08' W 093°20'0 0.0
2017-Jun-17 13:30N 30°08' W 093°20'0 0.0
2017-Jun-17 13:00N 30°08' W 093°20'0 0.0
2017-Jun-17 12:30N 30°08' W 093°20'0 0.0
2017-Jun-17 12:00N 30°08' W 093°20'0 0.0
2017-Jun-17 11:30N 30°08' W 093°20'0 0.0
2017-Jun-17 11:00N 30°08' W 093°20'0 0.0
2017-Jun-17 10:30N 30°08' W 093°20'0 0.0
2017-Jun-17 10:00N 30°08' W 093°20'0 0.0
2017-Jun-17 09:30N 30°08' W 093°20'1 2.9
2017-Jun-17 09:00N 30°07' W 093°20'1 1.1
2017-Jun-17 08:30N 30°06' W 093°20'0 0.5
2017-Jun-17 08:00N 30°06' W 093°20'1 1.9
2017-Jun-17 07:30N 30°05' W 093°20'2 4.2
2017-Jun-17 07:00N 30°04' W 093°22'0 0.7
2017-Jun-17 06:30N 30°04' W 093°22'1 2.7
2017-Jun-17 06:00N 30°04' W 093°24'2 4.7
2017-Jun-17 05:30N 30°04' W 093°26'2 4.9
2017-Jun-17 05:00N 30°04' W 093°29'2 4.9
2017-Jun-17 04:30N 30°04' W 093°32'3 4.9
2017-Jun-17 03:59N 30°04' W 093°35'3 5.4
2017-Jun-17 03:28N 30°04' W 093°38'2 5.0
2017-Jun-17 03:00N 30°04' W 093°41'3 0.1
2017-Jun-16 04:12N 30°02' W 093°44'1 7.0
2017-Jun-16 04:00N 30°03' W 093°43'3 5.9
2017-Jun-16 03:30N 30°04' W 093°39'3 5.5
2017-Jun-16 03:00N 30°04' W 093°36'2 4.3
2017-Jun-16 02:30N 30°04' W 093°34'2 4.9
2017-Jun-16 02:00N 30°04' W 093°31'3 5.0
2017-Jun-16 01:30N 30°04' W 093°28'2 4.8
2017-Jun-16 01:00N 30°04' W 093°25'2 4.4
2017-Jun-16 00:30N 30°04' W 093°23'2 3.7
2017-Jun-16 00:00N 30°04' W 093°21'2 3.5
2017-Jun-15 23:30N 30°06' W 093°19'2 3.4
2017-Jun-15 23:00N 30°05' W 093°18'1 2.1
2017-Jun-15 22:30N 30°05' W 093°17'1 1.0
2017-Jun-15 22:00N 30°04' W 093°16'1 2.9
2017-Jun-15 21:30N 30°03' W 093°16'2 4.3
2017-Jun-15 21:00N 30°01' W 093°14'2 4.2
2017-Jun-15 20:30N 29°59' W 093°13'2 4.7
2017-Jun-15 20:00N 29°58' W 093°11'2 4.3
2017-Jun-15 19:30N 29°56' W 093°09'2 4.0
2017-Jun-15 19:00N 29°56' W 093°07'2 4.0
2017-Jun-15 18:30N 29°56' W 093°05'33 3.0
2017-Jun-15 07:23N 29°53' W 092°26'3 2.9
2017-Jun-15 06:26N 29°53' W 092°23'2 3.6
2017-Jun-15 05:45N 29°51' W 092°22'1 3.0
2017-Jun-15 05:30N 29°51' W 092°21'2 3.4
2017-Jun-15 05:00N 29°50' W 092°19'1 2.7
2017-Jun-15 04:30N 29°50' W 092°18'1 3.0
2017-Jun-15 04:00N 29°49' W 092°16'0 0.6
2017-Jun-15 03:30N 29°49' W 092°16'0 0.1
2017-Jun-15 03:00N 29°49' W 092°16'0 0.1
2017-Jun-15 02:30N 29°49' W 092°16'1 2.5
2017-Jun-15 02:00N 29°48' W 092°15'2 3.9
2017-Jun-15 01:30N 29°47' W 092°13'2 3.7
2017-Jun-15 01:00N 29°47' W 092°11'2 4.2
2017-Jun-15 00:30N 29°47' W 092°08'2 4.9
2017-Jun-15 00:00N 29°48' W 092°06'2 4.5
2017-Jun-14 23:30N 29°49' W 092°03'2 4.5
2017-Jun-14 23:00N 29°49' W 092°01'3 4.9
2017-Jun-14 22:30N 29°50' W 091°58'56 4.2
2017-Jun-14 08:56N 29°34' W 090°56'5 4.9
2017-Jun-14 08:01N 29°32' W 090°51'0 4.9
2017-Jun-14 07:55N 29°32' W 090°51'2 4.9
2017-Jun-14 07:30N 29°32' W 090°48'2 4.5
2017-Jun-14 07:00N 29°32' W 090°46'1 2.8
2017-Jun-14 06:31N 29°33' W 090°45'2 3.5
2017-Jun-14 06:00N 29°34' W 090°43'2 3.5
2017-Jun-14 05:30N 29°36' W 090°43'1 2.6
2017-Jun-14 05:00N 29°37' W 090°41'2 4.4
2017-Jun-14 04:30N 29°36' W 090°39'2 4.6
2017-Jun-14 04:00N 29°35' W 090°37'3 5.2
2017-Jun-14 03:30N 29°34' W 090°34'2 4.8
2017-Jun-14 03:00N 29°34' W 090°31'3 5.0
2017-Jun-14 02:29N 29°34' W 090°28'  
2017-Jun-11 13:58N 31°59' W 091°10'4 9.2
2017-Jun-11 13:29N 32°00' W 091°05'4 8.8
2017-Jun-11 13:00N 32°05' W 091°04'3 6.4
2017-Jun-11 12:30N 32°08' W 091°05'4 8.4
2017-Jun-11 12:00N 32°09' W 091°00'611.0
2017-Jun-11 11:30N 32°15' W 090°59'611.3
2017-Jun-11 11:00N 32°19' W 090°54'4 7.3
2017-Jun-11 10:30N 32°21' W 090°58'3 5.9
2017-Jun-11 10:00N 32°23' W 090°60'3 6.1
2017-Jun-11 09:30N 32°26' W 091°02'4 7.6
2017-Jun-11 09:00N 32°28' W 091°06'4 7.0
2017-Jun-11 08:29N 32°31' W 091°06'3 6.9
2017-Jun-11 08:00N 32°34' W 091°07'5 6.9
2017-Jun-11 07:17N 32°39' W 091°09'  
Track history (hours):
 
Tides and Currents Weather Stations Pressure Air Temp Water Temp Dewpoint Dewpoint Depression Visibility Wind Speed Wind Dir Waves Ship Positions

Savage Insight

Owner: Savage Inland Marine, Gibson, LA. More information available from US FCC via Universal Licensing System and Coast Guard Vessel Documentation Center.

Last reported at 2017-Jun-20 08:01 UTC. Time now 2017-Jun-25 15:44 UTC.
Position N 29°51' W 091°54'.

Length 32 m; draft 10 m.

Type: Towing. MMSI: 367503240.

Date/timePositionNaut miles runAvg speedWind from/ knotsBaromVisibWave heightAir tempDewpointWater temp
2017-Jun-20 08:01N 29°51' W 091°54'0 4.9
2017-Jun-20 08:00N 29°51' W 091°55'2 5.1
2017-Jun-20 07:30N 29°50' W 091°57'3 5.3
2017-Jun-20 07:00N 29°50' W 092°00'3 5.5
2017-Jun-20 06:30N 29°49' W 092°03'3 5.8
2017-Jun-20 06:00N 29°48' W 092°06'3 5.1
2017-Jun-20 05:29N 29°47' W 092°09'2 4.1
2017-Jun-20 05:00N 29°47' W 092°12'2 4.9
2017-Jun-20 04:30N 29°48' W 092°14'0 0.1
2017-Jun-20 04:00N 29°48' W 092°14'0 0.0
2017-Jun-20 03:30N 29°48' W 092°14'2 4.4
2017-Jun-20 03:00N 29°49' W 092°17'3 5.0
2017-Jun-20 02:28N 29°50' W 092°19'1 2.6
2017-Jun-20 01:58N 29°51' W 092°21'39 3.8
2017-Jun-19 15:48N 29°56' W 093°05'1 4.9
2017-Jun-19 15:30N 29°56' W 093°06'14 4.0
2017-Jun-19 12:04N 30°05' W 093°18'0 1.0
2017-Jun-19 12:00N 30°05' W 093°18'1 1.0
2017-Jun-19 11:30N 30°06' W 093°18'0 0.0
2017-Jun-19 11:00N 30°06' W 093°18'0 0.0
2017-Jun-19 10:30N 30°06' W 093°18'0 0.0
2017-Jun-19 10:00N 30°06' W 093°18'0 0.0
2017-Jun-19 09:30N 30°06' W 093°18'0 0.0
2017-Jun-19 09:00N 30°06' W 093°18'0 0.0
2017-Jun-19 08:30N 30°06' W 093°18'0 0.0
2017-Jun-19 08:00N 30°06' W 093°18'0 0.0
2017-Jun-19 07:30N 30°06' W 093°18'0 0.0
2017-Jun-19 07:00N 30°06' W 093°18'0 0.0
2017-Jun-19 06:30N 30°06' W 093°18'0 0.0
2017-Jun-19 06:00N 30°06' W 093°18'0 0.0
2017-Jun-19 05:30N 30°06' W 093°18'0 0.0
2017-Jun-19 05:00N 30°06' W 093°18'0 0.0
2017-Jun-19 04:30N 30°06' W 093°18'0 0.0
2017-Jun-19 04:00N 30°06' W 093°18'0 0.0
2017-Jun-19 03:30N 30°06' W 093°18'0 0.0
2017-Jun-19 03:00N 30°06' W 093°18'0 0.1
2017-Jun-19 02:30N 30°06' W 093°18'1 1.9
2017-Jun-19 02:00N 30°06' W 093°19'3 5.3
2017-Jun-19 01:30N 30°04' W 093°21'1 1.3
2017-Jun-19 01:00N 30°04' W 093°22'0 0.0
2017-Jun-19 00:30N 30°04' W 093°22'0 0.0
2017-Jun-19 00:00N 30°04' W 093°22'0 0.0
2017-Jun-18 23:30N 30°04' W 093°22'0 0.0
2017-Jun-18 23:00N 30°04' W 093°22'0 0.0
2017-Jun-18 22:30N 30°04' W 093°22'0 0.0
2017-Jun-18 22:00N 30°04' W 093°22'0 0.0
2017-Jun-18 21:30N 30°04' W 093°22'0 0.0
2017-Jun-18 21:00N 30°04' W 093°22'0 0.0
2017-Jun-18 20:30N 30°04' W 093°22'0 0.0
2017-Jun-18 20:00N 30°04' W 093°22'0 0.0
2017-Jun-18 19:30N 30°04' W 093°22'0 0.0
2017-Jun-18 19:00N 30°04' W 093°22'0 0.0
2017-Jun-18 18:30N 30°04' W 093°22'0 0.0
2017-Jun-18 18:00N 30°04' W 093°22'0 0.0
2017-Jun-18 17:30N 30°04' W 093°22'0 0.1
2017-Jun-18 17:00N 30°04' W 093°22'0 0.1
2017-Jun-18 16:30N 30°04' W 093°22'0 0.1
2017-Jun-18 16:00N 30°04' W 093°22'0 0.5
2017-Jun-18 15:30N 30°04' W 093°21'0 0.3
2017-Jun-18 15:00N 30°04' W 093°21'0 0.0
2017-Jun-18 14:00N 30°04' W 093°21'0 0.0
2017-Jun-18 13:30N 30°04' W 093°21'0 0.0
2017-Jun-18 13:01N 30°04' W 093°21'0 0.8
2017-Jun-18 12:30N 30°04' W 093°22'1 2.3
2017-Jun-18 12:00N 30°04' W 093°21'2 3.6
2017-Jun-18 11:30N 30°06' W 093°20'2 4.4
2017-Jun-18 11:00N 30°08' W 093°20'1 1.0
2017-Jun-18 10:30N 30°08' W 093°19'0 0.0
2017-Jun-18 10:00N 30°08' W 093°19'0 0.0
2017-Jun-18 09:30N 30°08' W 093°19'0 0.0
2017-Jun-18 09:00N 30°08' W 093°19'0 0.0
2017-Jun-18 08:30N 30°08' W 093°19'0 0.0
2017-Jun-18 08:00N 30°08' W 093°19'0 0.0
2017-Jun-18 07:30N 30°08' W 093°19'0 0.0
2017-Jun-18 07:00N 30°08' W 093°19'0 0.0
2017-Jun-18 06:30N 30°08' W 093°19'0 0.0
2017-Jun-18 06:00N 30°08' W 093°19'0 0.0
2017-Jun-18 05:30N 30°08' W 093°19'0 0.0
2017-Jun-18 05:00N 30°08' W 093°19'0 0.0
2017-Jun-18 04:30N 30°08' W 093°19'0 0.0
2017-Jun-18 04:00N 30°08' W 093°19'0 0.0
2017-Jun-18 03:30N 30°08' W 093°19'0 0.0
2017-Jun-18 03:00N 30°08' W 093°19'0 0.0
2017-Jun-18 02:30N 30°08' W 093°19'0 0.0
2017-Jun-18 02:00N 30°08' W 093°19'0 0.0
2017-Jun-18 01:30N 30°08' W 093°19'0 0.0
2017-Jun-18 01:00N 30°08' W 093°19'0 0.0
2017-Jun-18 00:30N 30°08' W 093°19'0 0.0
2017-Jun-18 00:00N 30°08' W 093°19'0 0.0
2017-Jun-17 23:30N 30°08' W 093°19'0 0.0
2017-Jun-17 23:00N 30°08' W 093°19'0 0.0
2017-Jun-17 22:30N 30°08' W 093°19'0 0.0
2017-Jun-17 22:00N 30°08' W 093°19'0 0.0
2017-Jun-17 21:30N 30°08' W 093°19'0 0.0
2017-Jun-17 21:00N 30°08' W 093°19'0 0.0
2017-Jun-17 20:30N 30°08' W 093°19'0 0.0
2017-Jun-17 20:00N 30°08' W 093°19'0 0.0
2017-Jun-17 19:30N 30°08' W 093°19'0 0.0
2017-Jun-17 19:00N 30°08' W 093°19'0 0.0
2017-Jun-17 18:30N 30°08' W 093°19'0 0.0
2017-Jun-17 18:00N 30°08' W 093°19'0 0.0
2017-Jun-17 17:30N 30°08' W 093°19'0 0.0
2017-Jun-17 17:00N 30°08' W 093°19'0 0.6
2017-Jun-17 16:30N 30°08' W 093°20'0 0.1
2017-Jun-17 16:00N 30°08' W 093°19'0 0.0
2017-Jun-17 15:30N 30°08' W 093°19'0 0.0
2017-Jun-17 15:00N 30°08' W 093°20'0 0.1
2017-Jun-17 14:30N 30°08' W 093°20'0 0.0
2017-Jun-17 13:30N 30°08' W 093°20'0 0.0
2017-Jun-17 13:00N 30°08' W 093°20'0 0.0
2017-Jun-17 12:30N 30°08' W 093°20'0 0.0
2017-Jun-17 12:00N 30°08' W 093°20'0 0.0
2017-Jun-17 11:30N 30°08' W 093°20'0 0.0
2017-Jun-17 11:00N 30°08' W 093°20'0 0.0
2017-Jun-17 10:30N 30°08' W 093°20'0 0.0
2017-Jun-17 10:00N 30°08' W 093°20'0 0.0
2017-Jun-17 09:30N 30°08' W 093°20'1 2.9
2017-Jun-17 09:00N 30°07' W 093°20'1 1.1
2017-Jun-17 08:30N 30°06' W 093°20'0 0.5
2017-Jun-17 08:00N 30°06' W 093°20'1 1.9
2017-Jun-17 07:30N 30°05' W 093°20'2 4.2
2017-Jun-17 07:00N 30°04' W 093°22'0 0.7
2017-Jun-17 06:30N 30°04' W 093°22'1 2.7
2017-Jun-17 06:00N 30°04' W 093°24'2 4.7
2017-Jun-17 05:30N 30°04' W 093°26'2 4.9
2017-Jun-17 05:00N 30°04' W 093°29'2 4.9
2017-Jun-17 04:30N 30°04' W 093°32'3 4.9
2017-Jun-17 03:59N 30°04' W 093°35'3 5.4
2017-Jun-17 03:28N 30°04' W 093°38'2 5.0
2017-Jun-17 03:00N 30°04' W 093°41'3 0.1
2017-Jun-16 04:12N 30°02' W 093°44'1 7.0
2017-Jun-16 04:00N 30°03' W 093°43'3 5.9
2017-Jun-16 03:30N 30°04' W 093°39'3 5.5
2017-Jun-16 03:00N 30°04' W 093°36'2 4.3
2017-Jun-16 02:30N 30°04' W 093°34'2 4.9
2017-Jun-16 02:00N 30°04' W 093°31'3 5.0
2017-Jun-16 01:30N 30°04' W 093°28'2 4.8
2017-Jun-16 01:00N 30°04' W 093°25'2 4.4
2017-Jun-16 00:30N 30°04' W 093°23'2 3.7
2017-Jun-16 00:00N 30°04' W 093°21'2 3.5
2017-Jun-15 23:30N 30°06' W 093°19'2 3.4
2017-Jun-15 23:00N 30°05' W 093°18'1 2.1
2017-Jun-15 22:30N 30°05' W 093°17'1 1.0
2017-Jun-15 22:00N 30°04' W 093°16'1 2.9
2017-Jun-15 21:30N 30°03' W 093°16'2 4.3
2017-Jun-15 21:00N 30°01' W 093°14'2 4.2
2017-Jun-15 20:30N 29°59' W 093°13'2 4.7
2017-Jun-15 20:00N 29°58' W 093°11'2 4.3
2017-Jun-15 19:30N 29°56' W 093°09'2 4.0
2017-Jun-15 19:00N 29°56' W 093°07'2 4.0
2017-Jun-15 18:30N 29°56' W 093°05'33 3.0
2017-Jun-15 07:23N 29°53' W 092°26'3 2.9
2017-Jun-15 06:26N 29°53' W 092°23'2 3.6
2017-Jun-15 05:45N 29°51' W 092°22'1 3.0
2017-Jun-15 05:30N 29°51' W 092°21'2 3.4
2017-Jun-15 05:00N 29°50' W 092°19'1 2.7
2017-Jun-15 04:30N 29°50' W 092°18'1 3.0
2017-Jun-15 04:00N 29°49' W 092°16'0 0.6
2017-Jun-15 03:30N 29°49' W 092°16'0 0.1
2017-Jun-15 03:00N 29°49' W 092°16'0 0.1
2017-Jun-15 02:30N 29°49' W 092°16'1 2.5
2017-Jun-15 02:00N 29°48' W 092°15'2 3.9
2017-Jun-15 01:30N 29°47' W 092°13'2 3.7
2017-Jun-15 01:00N 29°47' W 092°11'2 4.2
2017-Jun-15 00:30N 29°47' W 092°08'2 4.9
2017-Jun-15 00:00N 29°48' W 092°06'2 4.5
2017-Jun-14 23:30N 29°49' W 092°03'2 4.5
2017-Jun-14 23:00N 29°49' W 092°01'3 4.9
2017-Jun-14 22:30N 29°50' W 091°58'56 4.2
2017-Jun-14 08:56N 29°34' W 090°56'5 4.9
2017-Jun-14 08:01N 29°32' W 090°51'0 4.9
2017-Jun-14 07:55N 29°32' W 090°51'2 4.9
2017-Jun-14 07:30N 29°32' W 090°48'2 4.5
2017-Jun-14 07:00N 29°32' W 090°46'1 2.8
2017-Jun-14 06:31N 29°33' W 090°45'2 3.5
2017-Jun-14 06:00N 29°34' W 090°43'2 3.5
2017-Jun-14 05:30N 29°36' W 090°43'1 2.6
2017-Jun-14 05:00N 29°37' W 090°41'2 4.4
2017-Jun-14 04:30N 29°36' W 090°39'2 4.6
2017-Jun-14 04:00N 29°35' W 090°37'3 5.2
2017-Jun-14 03:30N 29°34' W 090°34'2 4.8
2017-Jun-14 03:00N 29°34' W 090°31'3 5.0
2017-Jun-14 02:29N 29°34' W 090°28'  
2017-Jun-11 13:58N 31°59' W 091°10'4 9.2
2017-Jun-11 13:29N 32°00' W 091°05'4 8.8
2017-Jun-11 13:00N 32°05' W 091°04'3 6.4
2017-Jun-11 12:30N 32°08' W 091°05'4 8.4
2017-Jun-11 12:00N 32°09' W 091°00'611.0
2017-Jun-11 11:30N 32°15' W 090°59'611.3
2017-Jun-11 11:00N 32°19' W 090°54'4 7.3
2017-Jun-11 10:30N 32°21' W 090°58'3 5.9
2017-Jun-11 10:00N 32°23' W 090°60'3 6.1
2017-Jun-11 09:30N 32°26' W 091°02'4 7.6
2017-Jun-11 09:00N 32°28' W 091°06'4 7.0
2017-Jun-11 08:29N 32°31' W 091°06'3 6.9
2017-Jun-11 08:00N 32°34' W 091°07'5 6.9
2017-Jun-11 07:17N 32°39' W 091°09'  

Dump ship's entire track history